Bucksport, Maine
Current Conditions -  °F | °C
As of 12:53 AM on Sunday 21 Dec 2014 (Local Time) from KBGR Reporting Station
Overcast Overcast  
Wind Chill: 17°   Ceiling: 2800
Heat Index: 23°   Visibility: 10mi
Dew Point: 20°   Wind: 5mph
Humidity: 88%   Direction: 350°N
Pressure: 30.35"   Gusts: NA
Location:  44.58°N, 68.79°W
Report Text: KBGR 210553Z 35004KT 10SM SCT007 OVC028 M05/M07 A3035 RMK AO2 SLP280 4/002 T10501067 11050 21050 56009
Loading
Personal Weather Stations






























Interactive Weather Map New forecast layout! Learn more

10-Day Weather Forecast

Advertisements
Track Severe Weather on mobile